Clifton Hill, Missouri
Current Conditions -  °F | °C
As of 2:35 PM on Friday 28 Nov 2014 (Local Time) from KVER Reporting Station
Clear Clear  
Wind Chill: 60°   Ceiling: Unl
Heat Index: 60°   Visibility: 10mi
Dew Point: 32°   Wind: 7mph
Humidity: 34%   Direction: 190°S
Pressure: 29.86"   Gusts: NA
Location:  39.44°N, 92.67°W
Report Text: KVER 282035Z AUTO 19006KT 10SM CLR 16/00 A2986 RMK AO2 T01551002
Loading
Personal Weather Stations






























Interactive Weather Map New forecast layout! Learn more

10-Day Weather Forecast

Advertisements
Track Severe Weather on mobile